Enter the Airport ICAO Code

Search by Airport or City

Current Weather

LEAM | Almería Airport

Almería, Andalusia, Spain

Last Update 18 Minutes Ago

Clear Sky

Temperature of 10 ºC

Light Winds from Variable Directions

Temperature

10 ºC

Dew Point Temperature

08 ºC

Relative Humidity

87.42 %

Wind Direction

Variable

Wind Velocity

4 km/h (02 kt)

Gusts

None

Visibility

No Significant Reductions

Sea Level Pressure

1009 hPa (Hectopascals)

Layers of Clouds

None

METAR LEAM 160700Z VRB02KT CAVOK 10/08 Q1009

Weather Forecast

LEAM | Almería Airport

Almería, Andalusia, Spain

Forecast valid for the next 20 Hours

From now on it is expected:

Clear Sky

Light to Moderate Winds from NorthEast

In 10 to 12 hours it is expected the begining of:

Moderate Winds from North

Maximum Temperature

18 ºC in 7 Hours

Minimum Temperature

10 ºC in -1 Hours

TAF LEAM 160200Z 1603/1703 05009KT CAVOK TX18/1614Z TN10/1606Z BECMG 1617/1619 34010KT